sensor_id;sensor_type;location;lat;lon;timestamp;temperature;humidity
10873;DHT22;34586;53.616;10.032;2023-07-13T00:01:45;16.20;99.90
10873;DHT22;34586;53.616;10.032;2023-07-13T00:04:15;16.10;99.90
10873;DHT22;34586;53.616;10.032;2023-07-13T00:06:41;16.10;99.90
10873;DHT22;34586;53.616;10.032;2023-07-13T00:09:11;16.00;99.90
10873;DHT22;34586;53.616;10.032;2023-07-13T00:11:38;16.00;99.90
10873;DHT22;34586;53.616;10.032;2023-07-13T00:14:04;16.00;99.90
10873;DHT22;34586;53.616;10.032;2023-07-13T00:16:29;15.90;99.90
10873;DHT22;34586;53.616;10.032;2023-07-13T00:18:55;15.90;99.90
10873;DHT22;34586;53.616;10.032;2023-07-13T00:21:21;15.90;99.90
10873;DHT22;34586;53.616;10.032;2023-07-13T00:23:46;15.90;99.90
10873;DHT22;34586;53.616;10.032;2023-07-13T00:26:12;15.80;99.90
10873;DHT22;34586;53.616;10.032;2023-07-13T00:28:39;15.80;99.90
10873;DHT22;34586;53.616;10.032;2023-07-13T00:31:05;15.70;99.90
10873;DHT22;34586;53.616;10.032;2023-07-13T00:33:31;15.70;99.90
10873;DHT22;34586;53.616;10.032;2023-07-13T00:35:56;15.70;99.90
10873;DHT22;34586;53.616;10.032;2023-07-13T00:38:23;15.60;99.90
10873;DHT22;34586;53.616;10.032;2023-07-13T00:40:49;15.60;99.90
10873;DHT22;34586;53.616;10.032;2023-07-13T00:43:18;15.60;99.90
10873;DHT22;34586;53.616;10.032;2023-07-13T00:48:21;15.50;99.90
10873;DHT22;34586;53.616;10.032;2023-07-13T00:50:51;15.50;99.90
10873;DHT22;34586;53.616;10.032;2023-07-13T00:53:19;15.50;99.90
10873;DHT22;34586;53.616;10.032;2023-07-13T00:55:46;15.40;99.90
10873;DHT22;34586;53.616;10.032;2023-07-13T00:58:12;15.40;99.90
10873;DHT22;34586;53.616;10.032;2023-07-13T01:00:38;15.40;99.90
10873;DHT22;34586;53.616;10.032;2023-07-13T01:03:05;15.30;99.90
10873;DHT22;34586;53.616;10.032;2023-07-13T01:05:33;15.30;99.90
10873;DHT22;34586;53.616;10.032;2023-07-13T01:08:00;15.30;99.90
10873;DHT22;34586;53.616;10.032;2023-07-13T01:10:27;15.30;99.90
10873;DHT22;34586;53.616;10.032;2023-07-13T01:12:53;15.30;99.90
10873;DHT22;34586;53.616;10.032;2023-07-13T01:18:08;15.30;99.90
10873;DHT22;34586;53.616;10.032;2023-07-13T01:20:34;15.20;99.90
10873;DHT22;34586;53.616;10.032;2023-07-13T01:23:05;15.10;99.90
10873;DHT22;34586;53.616;10.032;2023-07-13T01:25:32;15.10;99.90
10873;DHT22;34586;53.616;10.032;2023-07-13T01:27:57;15.10;99.90
10873;DHT22;34586;53.616;10.032;2023-07-13T01:30:23;15.10;99.90
10873;DHT22;34586;53.616;10.032;2023-07-13T01:32:48;15.10;99.90
10873;DHT22;34586;53.616;10.032;2023-07-13T01:35:14;15.10;99.90
10873;DHT22;34586;53.616;10.032;2023-07-13T01:37:39;15.10;99.90
10873;DHT22;34586;53.616;10.032;2023-07-13T01:40:05;15.10;99.90
10873;DHT22;34586;53.616;10.032;2023-07-13T01:42:31;15.10;99.90
10873;DHT22;34586;53.616;10.032;2023-07-13T01:44:57;15.20;99.90
10873;DHT22;34586;53.616;10.032;2023-07-13T01:47:23;15.20;99.90
10873;DHT22;34586;53.616;10.032;2023-07-13T01:49:49;15.30;99.90
10873;DHT22;34586;53.616;10.032;2023-07-13T01:52:17;15.10;99.90
10873;DHT22;34586;53.616;10.032;2023-07-13T01:54:43;15.40;99.90
10873;DHT22;34586;53.616;10.032;2023-07-13T01:57:08;15.10;99.90
10873;DHT22;34586;53.616;10.032;2023-07-13T01:59:34;15.10;99.90
10873;DHT22;34586;53.616;10.032;2023-07-13T02:01:59;15.10;99.90
10873;DHT22;34586;53.616;10.032;2023-07-13T02:04:25;15.10;99.90
10873;DHT22;34586;53.616;10.032;2023-07-13T02:06:50;15.10;99.90
10873;DHT22;34586;53.616;10.032;2023-07-13T02:09:16;15.10;99.90
10873;DHT22;34586;53.616;10.032;2023-07-13T02:11:42;15.10;99.90
10873;DHT22;34586;53.616;10.032;2023-07-13T02:14:07;15.10;99.90
10873;DHT22;34586;53.616;10.032;2023-07-13T02:16:33;15.10;99.90
10873;DHT22;34586;53.616;10.032;2023-07-13T02:18:58;15.10;99.90
10873;DHT22;34586;53.616;10.032;2023-07-13T02:21:25;15.10;99.90
10873;DHT22;34586;53.616;10.032;2023-07-13T02:23:51;15.00;99.90
10873;DHT22;34586;53.616;10.032;2023-07-13T02:26:18;15.10;99.90
10873;DHT22;34586;53.616;10.032;2023-07-13T02:28:44;15.00;99.90
10873;DHT22;34586;53.616;10.032;2023-07-13T02:31:12;15.00;99.90
10873;DHT22;34586;53.616;10.032;2023-07-13T02:33:38;15.10;99.90
10873;DHT22;34586;53.616;10.032;2023-07-13T02:36:04;15.00;99.90
10873;DHT22;34586;53.616;10.032;2023-07-13T02:38:31;15.00;99.90
10873;DHT22;34586;53.616;10.032;2023-07-13T02:40:59;15.00;99.90
10873;DHT22;34586;53.616;10.032;2023-07-13T02:43:25;15.00;99.90
10873;DHT22;34586;53.616;10.032;2023-07-13T02:45:51;15.00;99.90
10873;DHT22;34586;53.616;10.032;2023-07-13T02:48:16;15.00;99.90
10873;DHT22;34586;53.616;10.032;2023-07-13T02:50:43;14.90;99.90
10873;DHT22;34586;53.616;10.032;2023-07-13T02:53:09;14.90;99.90
10873;DHT22;34586;53.616;10.032;2023-07-13T02:55:34;15.00;99.90
10873;DHT22;34586;53.616;10.032;2023-07-13T02:58:00;15.00;99.90
10873;DHT22;34586;53.616;10.032;2023-07-13T03:00:26;14.90;99.90
10873;DHT22;34586;53.616;10.032;2023-07-13T03:02:53;14.90;99.90
10873;DHT22;34586;53.616;10.032;2023-07-13T03:05:18;14.90;99.90
10873;DHT22;34586;53.616;10.032;2023-07-13T03:07:44;14.90;99.90
10873;DHT22;34586;53.616;10.032;2023-07-13T03:10:10;14.90;99.90
10873;DHT22;34586;53.616;10.032;2023-07-13T03:12:35;14.90;99.90
10873;DHT22;34586;53.616;10.032;2023-07-13T03:15:01;14.90;99.90
10873;DHT22;34586;53.616;10.032;2023-07-13T03:17:26;14.90;99.90
10873;DHT22;34586;53.616;10.032;2023-07-13T03:19:52;14.90;99.90
10873;DHT22;34586;53.616;10.032;2023-07-13T03:22:18;14.90;99.90
10873;DHT22;34586;53.616;10.032;2023-07-13T03:24:44;14.90;99.90
10873;DHT22;34586;53.616;10.032;2023-07-13T03:27:10;14.90;99.90
10873;DHT22;34586;53.616;10.032;2023-07-13T03:29:35;14.80;99.90
10873;DHT22;34586;53.616;10.032;2023-07-13T03:32:01;14.90;99.90
10873;DHT22;34586;53.616;10.032;2023-07-13T03:34:27;14.90;99.90
10873;DHT22;34586;53.616;10.032;2023-07-13T03:36:56;14.80;99.90
10873;DHT22;34586;53.616;10.032;2023-07-13T03:39:22;14.90;99.90
10873;DHT22;34586;53.616;10.032;2023-07-13T03:41:48;14.70;99.90
10873;DHT22;34586;53.616;10.032;2023-07-13T03:44:16;14.80;99.90
10873;DHT22;34586;53.616;10.032;2023-07-13T03:46:42;14.80;99.90
10873;DHT22;34586;53.616;10.032;2023-07-13T03:49:08;14.80;99.90
10873;DHT22;34586;53.616;10.032;2023-07-13T03:51:33;14.90;99.90
10873;DHT22;34586;53.616;10.032;2023-07-13T03:53:59;14.90;99.90
10873;DHT22;34586;53.616;10.032;2023-07-13T03:56:25;14.80;99.90
10873;DHT22;34586;53.616;10.032;2023-07-13T03:58:50;14.90;99.90
10873;DHT22;34586;53.616;10.032;2023-07-13T04:01:18;14.90;99.90
10873;DHT22;34586;53.616;10.032;2023-07-13T04:03:44;14.90;99.90
10873;DHT22;34586;53.616;10.032;2023-07-13T04:06:23;15.00;99.90
10873;DHT22;34586;53.616;10.032;2023-07-13T04:08:52;14.90;99.90
10873;DHT22;34586;53.616;10.032;2023-07-13T04:11:20;14.90;99.90
10873;DHT22;34586;53.616;10.032;2023-07-13T04:13:46;14.90;99.90
10873;DHT22;34586;53.616;10.032;2023-07-13T04:16:13;15.00;99.90
10873;DHT22;34586;53.616;10.032;2023-07-13T04:18:39;15.00;99.90
10873;DHT22;34586;53.616;10.032;2023-07-13T04:21:04;15.00;99.90
10873;DHT22;34586;53.616;10.032;2023-07-13T04:23:30;15.00;99.90
10873;DHT22;34586;53.616;10.032;2023-07-13T04:25:56;15.10;99.90
10873;DHT22;34586;53.616;10.032;2023-07-13T04:28:23;15.10;99.90
10873;DHT22;34586;53.616;10.032;2023-07-13T04:30:50;15.00;99.90
10873;DHT22;34586;53.616;10.032;2023-07-13T04:33:16;15.10;99.90
10873;DHT22;34586;53.616;10.032;2023-07-13T04:35:52;15.10;99.90
10873;DHT22;34586;53.616;10.032;2023-07-13T04:38:26;15.10;99.90
10873;DHT22;34586;53.616;10.032;2023-07-13T04:40:56;15.10;99.90
10873;DHT22;34586;53.616;10.032;2023-07-13T04:43:23;15.20;99.90
10873;DHT22;34586;53.616;10.032;2023-07-13T04:45:50;15.20;99.90
10873;DHT22;34586;53.616;10.032;2023-07-13T04:48:16;15.30;99.90
10873;DHT22;34586;53.616;10.032;2023-07-13T04:50:42;15.30;99.90
10873;DHT22;34586;53.616;10.032;2023-07-13T04:53:09;15.40;99.90
10873;DHT22;34586;53.616;10.032;2023-07-13T04:55:36;15.40;99.90
10873;DHT22;34586;53.616;10.032;2023-07-13T04:58:02;15.40;99.90
10873;DHT22;34586;53.616;10.032;2023-07-13T05:00:28;15.50;99.90
10873;DHT22;34586;53.616;10.032;2023-07-13T05:02:56;15.60;99.90
10873;DHT22;34586;53.616;10.032;2023-07-13T05:05:25;15.60;99.90
10873;DHT22;34586;53.616;10.032;2023-07-13T05:07:52;15.70;99.90
10873;DHT22;34586;53.616;10.032;2023-07-13T05:10:18;15.80;99.90
10873;DHT22;34586;53.616;10.032;2023-07-13T05:12:44;15.90;99.90
10873;DHT22;34586;53.616;10.032;2023-07-13T05:15:11;16.00;99.90
10873;DHT22;34586;53.616;10.032;2023-07-13T05:17:36;16.10;99.90
10873;DHT22;34586;53.616;10.032;2023-07-13T05:20:05;16.20;99.90
10873;DHT22;34586;53.616;10.032;2023-07-13T05:22:31;16.30;99.90
10873;DHT22;34586;53.616;10.032;2023-07-13T05:24:56;16.30;99.90
10873;DHT22;34586;53.616;10.032;2023-07-13T05:27:22;16.20;99.90
10873;DHT22;34586;53.616;10.032;2023-07-13T05:29:48;16.50;99.90
10873;DHT22;34586;53.616;10.032;2023-07-13T05:32:14;16.60;99.90
10873;DHT22;34586;53.616;10.032;2023-07-13T05:34:40;16.70;99.90
10873;DHT22;34586;53.616;10.032;2023-07-13T05:37:05;16.90;99.90
10873;DHT22;34586;53.616;10.032;2023-07-13T05:39:31;17.00;99.90
10873;DHT22;34586;53.616;10.032;2023-07-13T05:41:57;17.00;99.90
10873;DHT22;34586;53.616;10.032;2023-07-13T05:44:22;17.00;99.90
10873;DHT22;34586;53.616;10.032;2023-07-13T05:46:48;17.10;99.90
10873;DHT22;34586;53.616;10.032;2023-07-13T05:49:14;17.10;99.90
10873;DHT22;34586;53.616;10.032;2023-07-13T05:51:39;17.10;99.90
10873;DHT22;34586;53.616;10.032;2023-07-13T05:54:05;17.10;99.90
10873;DHT22;34586;53.616;10.032;2023-07-13T05:56:30;17.20;99.90
10873;DHT22;34586;53.616;10.032;2023-07-13T05:58:56;17.20;99.90
10873;DHT22;34586;53.616;10.032;2023-07-13T06:01:22;17.20;99.90
10873;DHT22;34586;53.616;10.032;2023-07-13T06:03:49;17.20;99.90
10873;DHT22;34586;53.616;10.032;2023-07-13T06:06:15;17.20;99.90
10873;DHT22;34586;53.616;10.032;2023-07-13T06:08:41;17.20;99.90
10873;DHT22;34586;53.616;10.032;2023-07-13T06:11:12;17.20;99.90
10873;DHT22;34586;53.616;10.032;2023-07-13T06:13:39;17.20;99.90
10873;DHT22;34586;53.616;10.032;2023-07-13T06:16:04;17.20;99.90
10873;DHT22;34586;53.616;10.032;2023-07-13T06:18:32;17.20;99.90
10873;DHT22;34586;53.616;10.032;2023-07-13T06:20:57;17.30;99.90
10873;DHT22;34586;53.616;10.032;2023-07-13T06:23:24;17.30;99.90
10873;DHT22;34586;53.616;10.032;2023-07-13T06:25:49;17.40;99.90
10873;DHT22;34586;53.616;10.032;2023-07-13T06:28:15;17.40;99.90
10873;DHT22;34586;53.616;10.032;2023-07-13T06:30:40;17.40;99.90
10873;DHT22;34586;53.616;10.032;2023-07-13T06:33:06;17.50;99.90
10873;DHT22;34586;53.616;10.032;2023-07-13T06:35:32;17.50;99.90
10873;DHT22;34586;53.616;10.032;2023-07-13T06:37:57;17.50;99.90
10873;DHT22;34586;53.616;10.032;2023-07-13T06:40:23;17.50;99.90
10873;DHT22;34586;53.616;10.032;2023-07-13T06:42:48;17.60;99.90
10873;DHT22;34586;53.616;10.032;2023-07-13T06:45:14;17.70;99.90
10873;DHT22;34586;53.616;10.032;2023-07-13T06:47:40;17.70;99.90
10873;DHT22;34586;53.616;10.032;2023-07-13T06:50:06;17.80;99.90
10873;DHT22;34586;53.616;10.032;2023-07-13T06:52:31;17.80;99.90
10873;DHT22;34586;53.616;10.032;2023-07-13T06:54:57;17.90;99.90
10873;DHT22;34586;53.616;10.032;2023-07-13T06:57:22;18.10;99.90
10873;DHT22;34586;53.616;10.032;2023-07-13T06:59:48;18.10;99.90
10873;DHT22;34586;53.616;10.032;2023-07-13T07:02:14;18.20;99.90
10873;DHT22;34586;53.616;10.032;2023-07-13T07:04:39;18.30;99.90
10873;DHT22;34586;53.616;10.032;2023-07-13T07:07:05;18.30;99.90
10873;DHT22;34586;53.616;10.032;2023-07-13T07:09:30;18.30;99.90
10873;DHT22;34586;53.616;10.032;2023-07-13T07:11:57;18.20;99.90
10873;DHT22;34586;53.616;10.032;2023-07-13T07:14:22;18.20;99.90
10873;DHT22;34586;53.616;10.032;2023-07-13T07:16:49;18.30;99.90
10873;DHT22;34586;53.616;10.032;2023-07-13T07:19:16;18.30;99.90
10873;DHT22;34586;53.616;10.032;2023-07-13T07:21:41;18.30;99.90
10873;DHT22;34586;53.616;10.032;2023-07-13T07:24:07;18.40;99.90
10873;DHT22;34586;53.616;10.032;2023-07-13T07:26:33;18.40;99.90
10873;DHT22;34586;53.616;10.032;2023-07-13T07:28:58;18.40;99.90
10873;DHT22;34586;53.616;10.032;2023-07-13T07:31:24;18.30;71.70
10873;DHT22;34586;53.616;10.032;2023-07-13T07:33:50;18.30;99.90
10873;DHT22;34586;53.616;10.032;2023-07-13T07:36:16;18.30;87.40
10873;DHT22;34586;53.616;10.032;2023-07-13T07:38:42;18.30;99.90
10873;DHT22;34586;53.616;10.032;2023-07-13T07:41:08;18.30;98.30
10873;DHT22;34586;53.616;10.032;2023-07-13T07:43:34;18.40;97.80
10873;DHT22;34586;53.616;10.032;2023-07-13T07:45:59;18.70;99.90
10873;DHT22;34586;53.616;10.032;2023-07-13T07:48:25;18.90;73.20
10873;DHT22;34586;53.616;10.032;2023-07-13T07:50:50;19.00;1.00
10873;DHT22;34586;53.616;10.032;2023-07-13T07:53:16;19.10;1.00
10873;DHT22;34586;53.616;10.032;2023-07-13T07:55:41;19.10;1.00
10873;DHT22;34586;53.616;10.032;2023-07-13T07:58:07;19.20;1.00
10873;DHT22;34586;53.616;10.032;2023-07-13T08:00:34;19.30;1.00
10873;DHT22;34586;53.616;10.032;2023-07-13T08:03:01;19.40;1.00
10873;DHT22;34586;53.616;10.032;2023-07-13T08:05:27;19.40;1.00
10873;DHT22;34586;53.616;10.032;2023-07-13T08:07:52;19.50;1.00
10873;DHT22;34586;53.616;10.032;2023-07-13T08:10:18;19.60;1.00
10873;DHT22;34586;53.616;10.032;2023-07-13T08:12:44;19.70;99.90
10873;DHT22;34586;53.616;10.032;2023-07-13T08:15:14;19.80;99.90
10873;DHT22;34586;53.616;10.032;2023-07-13T08:17:40;20.00;99.90
10873;DHT22;34586;53.616;10.032;2023-07-13T08:20:06;20.00;86.20
10873;DHT22;34586;53.616;10.032;2023-07-13T08:22:32;20.10;1.00
10873;DHT22;34586;53.616;10.032;2023-07-13T08:24:59;20.20;99.90
10873;DHT22;34586;53.616;10.032;2023-07-13T08:27:26;20.20;99.90
10873;DHT22;34586;53.616;10.032;2023-07-13T08:29:52;20.30;1.00
10873;DHT22;34586;53.616;10.032;2023-07-13T08:32:20;20.30;99.90
10873;DHT22;34586;53.616;10.032;2023-07-13T08:34:46;20.60;99.90
10873;DHT22;34586;53.616;10.032;2023-07-13T08:37:13;20.70;1.00
10873;DHT22;34586;53.616;10.032;2023-07-13T08:39:39;20.60;38.70
10873;DHT22;34586;53.616;10.032;2023-07-13T08:42:11;20.60;26.10
10873;DHT22;34586;53.616;10.032;2023-07-13T08:44:51;20.30;1.00
10873;DHT22;34586;53.616;10.032;2023-07-13T08:47:21;20.20;99.90
10873;DHT22;34586;53.616;10.032;2023-07-13T08:49:48;20.10;1.00
10873;DHT22;34586;53.616;10.032;2023-07-13T08:52:37;20.00;1.00
10873;DHT22;34586;53.616;10.032;2023-07-13T08:55:24;19.80;99.90
10873;DHT22;34586;53.616;10.032;2023-07-13T08:58:11;19.70;1.00
10873;DHT22;34586;53.616;10.032;2023-07-13T09:00:46;19.50;11.60
10873;DHT22;34586;53.616;10.032;2023-07-13T09:03:21;19.50;1.00
10873;DHT22;34586;53.616;10.032;2023-07-13T09:05:52;19.60;99.90
10873;DHT22;34586;53.616;10.032;2023-07-13T09:11:20;19.40;99.90
10873;DHT22;34586;53.616;10.032;2023-07-13T09:14:18;19.50;99.90
10873;DHT22;34586;53.616;10.032;2023-07-13T09:16:48;19.80;99.90
10873;DHT22;34586;53.616;10.032;2023-07-13T09:19:26;20.00;99.90
10873;DHT22;34586;53.616;10.032;2023-07-13T09:21:53;20.30;1.00
10873;DHT22;34586;53.616;10.032;2023-07-13T09:24:41;20.40;99.90
10873;DHT22;34586;53.616;10.032;2023-07-13T09:27:18;20.40;1.00
10873;DHT22;34586;53.616;10.032;2023-07-13T09:30:00;20.50;1.00
10873;DHT22;34586;53.616;10.032;2023-07-13T09:32:27;20.40;1.00
10873;DHT22;34586;53.616;10.032;2023-07-13T09:34:54;20.40;1.00
10873;DHT22;34586;53.616;10.032;2023-07-13T09:37:30;20.50;1.00
10873;DHT22;34586;53.616;10.032;2023-07-13T09:39:56;20.40;73.20
10873;DHT22;34586;53.616;10.032;2023-07-13T09:42:24;20.40;99.90
10873;DHT22;34586;53.616;10.032;2023-07-13T09:47:25;20.60;76.80
10873;DHT22;34586;53.616;10.032;2023-07-13T09:50:00;20.80;1.00
10873;DHT22;34586;53.616;10.032;2023-07-13T09:52:27;21.10;1.00
10873;DHT22;34586;53.616;10.032;2023-07-13T09:54:54;21.30;1.00
10873;DHT22;34586;53.616;10.032;2023-07-13T09:57:26;21.20;1.00
10873;DHT22;34586;53.616;10.032;2023-07-13T09:59:54;21.10;83.50
10873;DHT22;34586;53.616;10.032;2023-07-13T10:02:30;21.10;1.00
10873;DHT22;34586;53.616;10.032;2023-07-13T10:05:03;21.40;22.00
10873;DHT22;34586;53.616;10.032;2023-07-13T10:07:31;21.60;1.00
10873;DHT22;34586;53.616;10.032;2023-07-13T10:10:00;21.80;1.00
10873;DHT22;34586;53.616;10.032;2023-07-13T10:12:28;21.90;1.00
10873;DHT22;34586;53.616;10.032;2023-07-13T10:14:57;22.10;1.00
10873;DHT22;34586;53.616;10.032;2023-07-13T10:17:32;22.20;1.00
10873;DHT22;34586;53.616;10.032;2023-07-13T10:20:03;22.00;99.90
10873;DHT22;34586;53.616;10.032;2023-07-13T10:22:37;21.70;1.00
10873;DHT22;34586;53.616;10.032;2023-07-13T10:25:26;21.60;99.90
10873;DHT22;34586;53.616;10.032;2023-07-13T10:27:54;21.50;99.90
10873;DHT22;34586;53.616;10.032;2023-07-13T10:30:28;21.40;99.90
10873;DHT22;34586;53.616;10.032;2023-07-13T10:33:02;21.40;1.00
10873;DHT22;34586;53.616;10.032;2023-07-13T10:35:29;21.60;1.00
10873;DHT22;34586;53.616;10.032;2023-07-13T10:38:02;21.50;1.00
10873;DHT22;34586;53.616;10.032;2023-07-13T10:45:47;21.60;1.00
10873;DHT22;34586;53.616;10.032;2023-07-13T10:48:16;21.60;1.00
10873;DHT22;34586;53.616;10.032;2023-07-13T10:50:44;21.70;99.90
10873;DHT22;34586;53.616;10.032;2023-07-13T10:53:31;21.80;99.90
10873;DHT22;34586;53.616;10.032;2023-07-13T10:56:01;22.10;99.90
10873;DHT22;34586;53.616;10.032;2023-07-13T11:03:27;22.90;99.90
10873;DHT22;34586;53.616;10.032;2023-07-13T11:06:11;22.90;99.90
10873;DHT22;34586;53.616;10.032;2023-07-13T11:13:57;23.00;99.90
10873;DHT22;34586;53.616;10.032;2023-07-13T11:18:51;22.80;1.00
10873;DHT22;34586;53.616;10.032;2023-07-13T11:21:22;22.70;1.00
10873;DHT22;34586;53.616;10.032;2023-07-13T11:24:47;22.80;1.00
10873;DHT22;34586;53.616;10.032;2023-07-13T11:26:42;23.10;1.00
10873;DHT22;34586;53.616;10.032;2023-07-13T11:31:52;23.20;99.90
10873;DHT22;34586;53.616;10.032;2023-07-13T11:34:24;23.40;99.90
10873;DHT22;34586;53.616;10.032;2023-07-13T11:36:50;23.30;99.90
10873;DHT22;34586;53.616;10.032;2023-07-13T11:39:22;22.90;99.90
10873;DHT22;34586;53.616;10.032;2023-07-13T11:41:59;22.80;99.90
10873;DHT22;34586;53.616;10.032;2023-07-13T11:44:27;23.10;99.90
10873;DHT22;34586;53.616;10.032;2023-07-13T11:47:09;23.20;99.90
10873;DHT22;34586;53.616;10.032;2023-07-13T11:49:42;23.00;99.90
10873;DHT22;34586;53.616;10.032;2023-07-13T11:52:14;22.80;99.90
10873;DHT22;34586;53.616;10.032;2023-07-13T11:54:49;22.90;99.90
10873;DHT22;34586;53.616;10.032;2023-07-13T11:57:29;23.00;99.90
10873;DHT22;34586;53.616;10.032;2023-07-13T11:59:57;23.10;99.90
10873;DHT22;34586;53.616;10.032;2023-07-13T12:02:32;23.00;99.90
10873;DHT22;34586;53.616;10.032;2023-07-13T12:04:59;23.00;93.10
10873;DHT22;34586;53.616;10.032;2023-07-13T12:07:29;23.00;99.90
10873;DHT22;34586;53.616;10.032;2023-07-13T12:10:22;22.90;99.90
10873;DHT22;34586;53.616;10.032;2023-07-13T12:13:01;23.00;99.90
10873;DHT22;34586;53.616;10.032;2023-07-13T12:15:47;22.70;99.90
10873;DHT22;34586;53.616;10.032;2023-07-13T12:18:22;22.20;1.00
10873;DHT22;34586;53.616;10.032;2023-07-13T12:20:49;21.70;1.00
10873;DHT22;34586;53.616;10.032;2023-07-13T12:25:53;20.20;99.90
10873;DHT22;34586;53.616;10.032;2023-07-13T12:28:21;19.20;99.90
10873;DHT22;34586;53.616;10.032;2023-07-13T12:30:48;18.50;99.90
10873;DHT22;34586;53.616;10.032;2023-07-13T12:33:16;17.90;99.90
10873;DHT22;34586;53.616;10.032;2023-07-13T12:35:46;17.50;99.90
10873;DHT22;34586;53.616;10.032;2023-07-13T12:38:12;17.20;99.90
10873;DHT22;34586;53.616;10.032;2023-07-13T12:40:38;17.10;99.90
10873;DHT22;34586;53.616;10.032;2023-07-13T12:43:13;17.10;99.90
10873;DHT22;34586;53.616;10.032;2023-07-13T12:45:58;17.30;99.90
10873;DHT22;34586;53.616;10.032;2023-07-13T12:48:25;17.40;99.90
10873;DHT22;34586;53.616;10.032;2023-07-13T12:50:53;17.70;99.90
10873;DHT22;34586;53.616;10.032;2023-07-13T12:53:21;17.90;99.90
10873;DHT22;34586;53.616;10.032;2023-07-13T12:55:55;18.50;99.90
10873;DHT22;34586;53.616;10.032;2023-07-13T12:58:28;19.60;99.90
10873;DHT22;34586;53.616;10.032;2023-07-13T13:00:57;20.40;99.90
10873;DHT22;34586;53.616;10.032;2023-07-13T13:03:31;21.00;99.90
10873;DHT22;34586;53.616;10.032;2023-07-13T13:06:32;21.40;99.90
10873;DHT22;34586;53.616;10.032;2023-07-13T13:08:53;21.40;99.90
10873;DHT22;34586;53.616;10.032;2023-07-13T13:11:21;21.50;99.90
10873;DHT22;34586;53.616;10.032;2023-07-13T13:13:48;21.20;99.90
10873;DHT22;34586;53.616;10.032;2023-07-13T13:16:34;20.50;96.30
10873;DHT22;34586;53.616;10.032;2023-07-13T13:19:16;20.10;99.90
10873;DHT22;34586;53.616;10.032;2023-07-13T13:21:43;19.90;99.90
10873;DHT22;34586;53.616;10.032;2023-07-13T13:24:12;19.70;99.90
10873;DHT22;34586;53.616;10.032;2023-07-13T13:26:38;19.70;99.90
10873;DHT22;34586;53.616;10.032;2023-07-13T13:29:14;19.70;99.90
10873;DHT22;34586;53.616;10.032;2023-07-13T13:31:42;19.70;99.90
10873;DHT22;34586;53.616;10.032;2023-07-13T13:34:12;19.80;99.90
10873;DHT22;34586;53.616;10.032;2023-07-13T13:36:40;19.90;99.90
10873;DHT22;34586;53.616;10.032;2023-07-13T13:41:43;19.80;99.90
10873;DHT22;34586;53.616;10.032;2023-07-13T13:44:10;19.90;99.90
10873;DHT22;34586;53.616;10.032;2023-07-13T13:46:36;20.00;70.40
10873;DHT22;34586;53.616;10.032;2023-07-13T13:49:02;20.00;99.90
10873;DHT22;34586;53.616;10.032;2023-07-13T13:51:28;20.10;99.90
10873;DHT22;34586;53.616;10.032;2023-07-13T13:53:54;20.20;4.10
10873;DHT22;34586;53.616;10.032;2023-07-13T13:56:20;20.30;1.00
10873;DHT22;34586;53.616;10.032;2023-07-13T13:58:46;20.50;99.90
10873;DHT22;34586;53.616;10.032;2023-07-13T14:01:21;20.30;1.00
10873;DHT22;34586;53.616;10.032;2023-07-13T14:03:50;20.10;35.00
10873;DHT22;34586;53.616;10.032;2023-07-13T14:06:17;20.20;1.00
10873;DHT22;34586;53.616;10.032;2023-07-13T14:08:43;20.20;8.80
10873;DHT22;34586;53.616;10.032;2023-07-13T14:11:14;20.20;99.90
10873;DHT22;34586;53.616;10.032;2023-07-13T14:13:47;20.40;9.30
10873;DHT22;34586;53.616;10.032;2023-07-13T14:16:18;21.00;1.00
10873;DHT22;34586;53.616;10.032;2023-07-13T14:18:45;21.20;99.90
10873;DHT22;34586;53.616;10.032;2023-07-13T14:21:16;21.40;99.90
10873;DHT22;34586;53.616;10.032;2023-07-13T14:23:44;21.50;24.90
10873;DHT22;34586;53.616;10.032;2023-07-13T14:26:15;21.30;98.20
10873;DHT22;34586;53.616;10.032;2023-07-13T14:28:44;21.30;99.90
10873;DHT22;34586;53.616;10.032;2023-07-13T14:31:12;21.20;1.00
10873;DHT22;34586;53.616;10.032;2023-07-13T14:33:38;21.00;99.90
10873;DHT22;34586;53.616;10.032;2023-07-13T14:36:21;21.10;99.90
10873;DHT22;34586;53.616;10.032;2023-07-13T14:38:48;21.20;1.00
10873;DHT22;34586;53.616;10.032;2023-07-13T14:41:15;21.80;32.20
10873;DHT22;34586;53.616;10.032;2023-07-13T14:43:40;22.20;1.00
10873;DHT22;34586;53.616;10.032;2023-07-13T14:46:12;22.30;1.00
10873;DHT22;34586;53.616;10.032;2023-07-13T14:48:43;22.20;1.00
10873;DHT22;34586;53.616;10.032;2023-07-13T14:51:15;22.00;77.50
10873;DHT22;34586;53.616;10.032;2023-07-13T14:53:41;21.80;99.90
10873;DHT22;34586;53.616;10.032;2023-07-13T14:56:13;21.70;99.90
10873;DHT22;34586;53.616;10.032;2023-07-13T14:58:40;21.70;1.00
10873;DHT22;34586;53.616;10.032;2023-07-13T15:01:12;21.60;99.90
10873;DHT22;34586;53.616;10.032;2023-07-13T15:03:43;21.60;99.90
10873;DHT22;34586;53.616;10.032;2023-07-13T15:06:12;21.50;99.90
10873;DHT22;34586;53.616;10.032;2023-07-13T15:08:39;21.50;99.90
10873;DHT22;34586;53.616;10.032;2023-07-13T15:11:08;21.50;95.40
10873;DHT22;34586;53.616;10.032;2023-07-13T15:13:38;21.70;1.00
10873;DHT22;34586;53.616;10.032;2023-07-13T15:16:10;21.70;1.00
10873;DHT22;34586;53.616;10.032;2023-07-13T15:18:39;21.90;1.00
10873;DHT22;34586;53.616;10.032;2023-07-13T15:21:09;22.10;1.00
10873;DHT22;34586;53.616;10.032;2023-07-13T15:23:36;22.40;1.00
10873;DHT22;34586;53.616;10.032;2023-07-13T15:26:01;22.20;1.00
10873;DHT22;34586;53.616;10.032;2023-07-13T15:28:28;22.10;1.00
10873;DHT22;34586;53.616;10.032;2023-07-13T15:30:54;22.10;1.00
10873;DHT22;34586;53.616;10.032;2023-07-13T15:33:26;22.20;1.00
10873;DHT22;34586;53.616;10.032;2023-07-13T15:35:53;22.10;99.90
10873;DHT22;34586;53.616;10.032;2023-07-13T15:38:29;22.00;1.00
10873;DHT22;34586;53.616;10.032;2023-07-13T15:40:55;21.70;1.00
10873;DHT22;34586;53.616;10.032;2023-07-13T15:43:22;21.60;24.00
10873;DHT22;34586;53.616;10.032;2023-07-13T15:45:48;21.60;1.00
10873;DHT22;34586;53.616;10.032;2023-07-13T15:48:21;21.60;95.30
10873;DHT22;34586;53.616;10.032;2023-07-13T15:50:48;21.90;1.00
10873;DHT22;34586;53.616;10.032;2023-07-13T15:53:25;21.80;1.00
10873;DHT22;34586;53.616;10.032;2023-07-13T15:55:52;22.00;99.90
10873;DHT22;34586;53.616;10.032;2023-07-13T15:58:18;22.10;1.00
10873;DHT22;34586;53.616;10.032;2023-07-13T16:00:44;21.90;1.00
10873;DHT22;34586;53.616;10.032;2023-07-13T16:03:10;21.90;1.00
10873;DHT22;34586;53.616;10.032;2023-07-13T16:05:36;21.80;1.00